sensor_id;sensor_type;location;lat;lon;timestamp;P1;durP1;ratioP1;P2;durP2;ratioP2
77324;SDS011;66387;53.440;10.390;2023-04-06T00:01:06;5.55;;;2.70;;
77324;SDS011;66387;53.440;10.390;2023-04-06T00:03:31;5.80;;;2.70;;
77324;SDS011;66387;53.440;10.390;2023-04-06T00:05:56;5.00;;;3.03;;
77324;SDS011;66387;53.440;10.390;2023-04-06T00:08:22;4.30;;;2.37;;
77324;SDS011;66387;53.440;10.390;2023-04-06T00:10:48;3.33;;;2.22;;
77324;SDS011;66387;53.440;10.390;2023-04-06T00:13:13;3.25;;;2.30;;
77324;SDS011;66387;53.440;10.390;2023-04-06T00:15:39;4.20;;;2.47;;
77324;SDS011;66387;53.440;10.390;2023-04-06T00:18:05;2.83;;;2.53;;
77324;SDS011;66387;53.440;10.390;2023-04-06T00:20:30;3.55;;;2.38;;
77324;SDS011;66387;53.440;10.390;2023-04-06T00:22:55;3.00;;;2.40;;
77324;SDS011;66387;53.440;10.390;2023-04-06T00:25:21;5.20;;;2.70;;
77324;SDS011;66387;53.440;10.390;2023-04-06T00:27:46;4.40;;;2.40;;
77324;SDS011;66387;53.440;10.390;2023-04-06T00:30:11;4.80;;;2.57;;
77324;SDS011;66387;53.440;10.390;2023-04-06T00:32:37;2.95;;;2.10;;
77324;SDS011;66387;53.440;10.390;2023-04-06T00:35:05;4.03;;;2.38;;
77324;SDS011;66387;53.440;10.390;2023-04-06T00:37:31;4.95;;;2.30;;
77324;SDS011;66387;53.440;10.390;2023-04-06T00:39:57;2.90;;;2.60;;
77324;SDS011;66387;53.440;10.390;2023-04-06T00:42:23;5.03;;;2.90;;
77324;SDS011;66387;53.440;10.390;2023-04-06T00:44:55;4.03;;;2.13;;
77324;SDS011;66387;53.440;10.390;2023-04-06T00:47:22;3.85;;;2.35;;
77324;SDS011;66387;53.440;10.390;2023-04-06T00:49:49;3.88;;;2.78;;
77324;SDS011;66387;53.440;10.390;2023-04-06T00:52:15;4.63;;;2.72;;
77324;SDS011;66387;53.440;10.390;2023-04-06T00:54:40;3.92;;;2.85;;
77324;SDS011;66387;53.440;10.390;2023-04-06T00:57:06;3.55;;;2.50;;
77324;SDS011;66387;53.440;10.390;2023-04-06T00:59:31;3.55;;;2.22;;
77324;SDS011;66387;53.440;10.390;2023-04-06T01:01:57;2.95;;;2.03;;
77324;SDS011;66387;53.440;10.390;2023-04-06T01:04:22;3.72;;;2.38;;
77324;SDS011;66387;53.440;10.390;2023-04-06T01:06:48;4.47;;;2.00;;
77324;SDS011;66387;53.440;10.390;2023-04-06T01:09:14;4.22;;;2.58;;
77324;SDS011;66387;53.440;10.390;2023-04-06T01:11:39;5.35;;;2.95;;
77324;SDS011;66387;53.440;10.390;2023-04-06T01:14:05;4.72;;;2.88;;
77324;SDS011;66387;53.440;10.390;2023-04-06T01:16:30;3.28;;;2.08;;
77324;SDS011;66387;53.440;10.390;2023-04-06T01:18:56;3.67;;;2.60;;
77324;SDS011;66387;53.440;10.390;2023-04-06T01:21:21;3.72;;;2.40;;
77324;SDS011;66387;53.440;10.390;2023-04-06T01:23:47;5.80;;;2.80;;
77324;SDS011;66387;53.440;10.390;2023-04-06T01:26:12;6.77;;;2.70;;
77324;SDS011;66387;53.440;10.390;2023-04-06T01:28:38;2.97;;;2.30;;
77324;SDS011;66387;53.440;10.390;2023-04-06T01:31:05;4.60;;;3.15;;
77324;SDS011;66387;53.440;10.390;2023-04-06T01:33:33;4.40;;;2.40;;
77324;SDS011;66387;53.440;10.390;2023-04-06T01:35:58;3.77;;;2.73;;
77324;SDS011;66387;53.440;10.390;2023-04-06T01:38:24;3.13;;;1.95;;
77324;SDS011;66387;53.440;10.390;2023-04-06T01:40:51;3.42;;;2.42;;
77324;SDS011;66387;53.440;10.390;2023-04-06T01:43:16;4.55;;;2.30;;
77324;SDS011;66387;53.440;10.390;2023-04-06T01:45:42;4.00;;;2.60;;
77324;SDS011;66387;53.440;10.390;2023-04-06T01:48:07;4.53;;;2.53;;
77324;SDS011;66387;53.440;10.390;2023-04-06T01:50:32;4.53;;;2.63;;
77324;SDS011;66387;53.440;10.390;2023-04-06T01:52:57;3.33;;;2.40;;
77324;SDS011;66387;53.440;10.390;2023-04-06T01:55:23;3.23;;;2.30;;
77324;SDS011;66387;53.440;10.390;2023-04-06T01:57:48;3.10;;;2.17;;
77324;SDS011;66387;53.440;10.390;2023-04-06T02:00:14;3.20;;;2.07;;
77324;SDS011;66387;53.440;10.390;2023-04-06T02:02:40;3.53;;;2.55;;
77324;SDS011;66387;53.440;10.390;2023-04-06T02:05:05;2.63;;;1.90;;
77324;SDS011;66387;53.440;10.390;2023-04-06T02:07:30;4.20;;;2.75;;
77324;SDS011;66387;53.440;10.390;2023-04-06T02:09:56;3.70;;;2.93;;
77324;SDS011;66387;53.440;10.390;2023-04-06T02:12:21;3.17;;;2.43;;
77324;SDS011;66387;53.440;10.390;2023-04-06T02:14:46;3.17;;;2.65;;
77324;SDS011;66387;53.440;10.390;2023-04-06T02:17:12;3.77;;;2.50;;
77324;SDS011;66387;53.440;10.390;2023-04-06T02:19:37;2.73;;;2.40;;
77324;SDS011;66387;53.440;10.390;2023-04-06T02:22:02;4.03;;;2.87;;
77324;SDS011;66387;53.440;10.390;2023-04-06T02:24:27;4.70;;;3.20;;
77324;SDS011;66387;53.440;10.390;2023-04-06T02:26:53;4.57;;;2.87;;
77324;SDS011;66387;53.440;10.390;2023-04-06T02:29:18;6.30;;;3.13;;
77324;SDS011;66387;53.440;10.390;2023-04-06T02:31:43;5.60;;;3.07;;
77324;SDS011;66387;53.440;10.390;2023-04-06T02:34:08;5.35;;;3.45;;
77324;SDS011;66387;53.440;10.390;2023-04-06T02:36:36;7.18;;;3.60;;
77324;SDS011;66387;53.440;10.390;2023-04-06T02:39:02;4.90;;;3.60;;
77324;SDS011;66387;53.440;10.390;2023-04-06T02:41:28;5.40;;;3.60;;
77324;SDS011;66387;53.440;10.390;2023-04-06T02:43:53;6.30;;;3.27;;
77324;SDS011;66387;53.440;10.390;2023-04-06T02:46:18;4.17;;;3.50;;
77324;SDS011;66387;53.440;10.390;2023-04-06T02:48:44;7.28;;;3.58;;
77324;SDS011;66387;53.440;10.390;2023-04-06T02:51:09;6.17;;;3.60;;
77324;SDS011;66387;53.440;10.390;2023-04-06T02:53:34;5.93;;;3.73;;
77324;SDS011;66387;53.440;10.390;2023-04-06T02:56:00;8.23;;;5.00;;
77324;SDS011;66387;53.440;10.390;2023-04-06T02:58:25;6.77;;;3.90;;
77324;SDS011;66387;53.440;10.390;2023-04-06T03:00:50;5.90;;;3.90;;
77324;SDS011;66387;53.440;10.390;2023-04-06T03:03:16;6.43;;;4.07;;
77324;SDS011;66387;53.440;10.390;2023-04-06T03:05:41;6.60;;;4.03;;
77324;SDS011;66387;53.440;10.390;2023-04-06T03:08:06;6.30;;;3.57;;
77324;SDS011;66387;53.440;10.390;2023-04-06T03:10:31;4.85;;;3.30;;
77324;SDS011;66387;53.440;10.390;2023-04-06T03:12:57;5.63;;;3.83;;
77324;SDS011;66387;53.440;10.390;2023-04-06T03:15:22;6.33;;;3.67;;
77324;SDS011;66387;53.440;10.390;2023-04-06T03:17:47;6.57;;;4.13;;
77324;SDS011;66387;53.440;10.390;2023-04-06T03:20:12;7.47;;;4.73;;
77324;SDS011;66387;53.440;10.390;2023-04-06T03:22:38;6.30;;;4.10;;
77324;SDS011;66387;53.440;10.390;2023-04-06T03:25:03;6.40;;;4.37;;
77324;SDS011;66387;53.440;10.390;2023-04-06T03:27:28;6.63;;;4.03;;
77324;SDS011;66387;53.440;10.390;2023-04-06T03:29:54;5.07;;;3.60;;
77324;SDS011;66387;53.440;10.390;2023-04-06T03:32:19;8.98;;;4.25;;
77324;SDS011;66387;53.440;10.390;2023-04-06T03:34:45;7.45;;;4.05;;
77324;SDS011;66387;53.440;10.390;2023-04-06T03:37:10;5.10;;;4.07;;
77324;SDS011;66387;53.440;10.390;2023-04-06T03:39:35;5.80;;;3.90;;
77324;SDS011;66387;53.440;10.390;2023-04-06T03:42:01;4.78;;;3.85;;
77324;SDS011;66387;53.440;10.390;2023-04-06T03:44:26;4.90;;;3.50;;
77324;SDS011;66387;53.440;10.390;2023-04-06T03:46:51;5.13;;;3.23;;
77324;SDS011;66387;53.440;10.390;2023-04-06T03:49:16;4.80;;;3.47;;
77324;SDS011;66387;53.440;10.390;2023-04-06T03:51:42;3.87;;;2.83;;
77324;SDS011;66387;53.440;10.390;2023-04-06T03:54:07;4.60;;;2.93;;
77324;SDS011;66387;53.440;10.390;2023-04-06T03:56:32;3.43;;;2.83;;
77324;SDS011;66387;53.440;10.390;2023-04-06T03:58:57;4.93;;;3.33;;
77324;SDS011;66387;53.440;10.390;2023-04-06T04:01:23;4.37;;;3.27;;
77324;SDS011;66387;53.440;10.390;2023-04-06T04:03:48;4.37;;;3.07;;
77324;SDS011;66387;53.440;10.390;2023-04-06T04:06:13;4.67;;;2.83;;
77324;SDS011;66387;53.440;10.390;2023-04-06T04:08:38;3.30;;;3.00;;
77324;SDS011;66387;53.440;10.390;2023-04-06T04:11:04;4.38;;;3.15;;
77324;SDS011;66387;53.440;10.390;2023-04-06T04:13:29;4.37;;;2.80;;
77324;SDS011;66387;53.440;10.390;2023-04-06T04:15:55;3.53;;;3.00;;
77324;SDS011;66387;53.440;10.390;2023-04-06T04:18:20;4.97;;;3.00;;
77324;SDS011;66387;53.440;10.390;2023-04-06T04:20:45;6.20;;;3.10;;
77324;SDS011;66387;53.440;10.390;2023-04-06T04:23:11;5.32;;;3.05;;
77324;SDS011;66387;53.440;10.390;2023-04-06T04:25:36;4.83;;;3.00;;
77324;SDS011;66387;53.440;10.390;2023-04-06T04:28:01;4.93;;;2.97;;
77324;SDS011;66387;53.440;10.390;2023-04-06T04:30:27;4.50;;;3.35;;
77324;SDS011;66387;53.440;10.390;2023-04-06T04:32:52;6.53;;;3.53;;
77324;SDS011;66387;53.440;10.390;2023-04-06T04:35:17;4.30;;;3.25;;
77324;SDS011;66387;53.440;10.390;2023-04-06T04:37:43;4.63;;;3.00;;
77324;SDS011;66387;53.440;10.390;2023-04-06T04:40:08;5.17;;;2.83;;
77324;SDS011;66387;53.440;10.390;2023-04-06T04:42:34;5.35;;;3.30;;
77324;SDS011;66387;53.440;10.390;2023-04-06T04:44:59;4.50;;;3.20;;
77324;SDS011;66387;53.440;10.390;2023-04-06T04:47:24;5.88;;;4.32;;
77324;SDS011;66387;53.440;10.390;2023-04-06T04:49:50;5.73;;;3.83;;
77324;SDS011;66387;53.440;10.390;2023-04-06T04:52:15;5.63;;;3.17;;
77324;SDS011;66387;53.440;10.390;2023-04-06T04:54:40;8.40;;;3.63;;
77324;SDS011;66387;53.440;10.390;2023-04-06T04:57:06;4.35;;;3.45;;
77324;SDS011;66387;53.440;10.390;2023-04-06T04:59:31;4.28;;;3.30;;
77324;SDS011;66387;53.440;10.390;2023-04-06T05:01:56;5.83;;;4.03;;
77324;SDS011;66387;53.440;10.390;2023-04-06T05:04:22;4.63;;;3.42;;
77324;SDS011;66387;53.440;10.390;2023-04-06T05:06:47;5.97;;;3.75;;
77324;SDS011;66387;53.440;10.390;2023-04-06T05:09:13;8.20;;;4.00;;
77324;SDS011;66387;53.440;10.390;2023-04-06T05:11:38;6.90;;;4.22;;
77324;SDS011;66387;53.440;10.390;2023-04-06T05:14:03;5.60;;;3.53;;
77324;SDS011;66387;53.440;10.390;2023-04-06T05:16:29;7.57;;;4.13;;
77324;SDS011;66387;53.440;10.390;2023-04-06T05:18:55;6.93;;;4.10;;
77324;SDS011;66387;53.440;10.390;2023-04-06T05:21:21;4.93;;;4.13;;
77324;SDS011;66387;53.440;10.390;2023-04-06T05:23:47;8.52;;;5.05;;
77324;SDS011;66387;53.440;10.390;2023-04-06T05:26:12;5.73;;;4.27;;
77324;SDS011;66387;53.440;10.390;2023-04-06T05:28:37;7.37;;;4.43;;
77324;SDS011;66387;53.440;10.390;2023-04-06T05:31:02;8.33;;;4.50;;
77324;SDS011;66387;53.440;10.390;2023-04-06T05:33:28;7.65;;;4.63;;
77324;SDS011;66387;53.440;10.390;2023-04-06T05:35:54;6.63;;;4.80;;
77324;SDS011;66387;53.440;10.390;2023-04-06T05:38:19;6.67;;;4.50;;
77324;SDS011;66387;53.440;10.390;2023-04-06T05:40:44;8.02;;;4.60;;
77324;SDS011;66387;53.440;10.390;2023-04-06T05:43:10;8.53;;;4.93;;
77324;SDS011;66387;53.440;10.390;2023-04-06T05:45:35;6.73;;;4.70;;
77324;SDS011;66387;53.440;10.390;2023-04-06T05:48:01;6.72;;;5.18;;
77324;SDS011;66387;53.440;10.390;2023-04-06T05:50:27;7.32;;;4.65;;
77324;SDS011;66387;53.440;10.390;2023-04-06T05:52:52;7.73;;;4.40;;
77324;SDS011;66387;53.440;10.390;2023-04-06T05:55:17;4.97;;;4.27;;
77324;SDS011;66387;53.440;10.390;2023-04-06T05:57:42;6.00;;;4.60;;
77324;SDS011;66387;53.440;10.390;2023-04-06T06:00:08;6.67;;;4.60;;
77324;SDS011;66387;53.440;10.390;2023-04-06T06:02:34;7.10;;;4.45;;
77324;SDS011;66387;53.440;10.390;2023-04-06T06:05:00;16.77;;;5.30;;
77324;SDS011;66387;53.440;10.390;2023-04-06T06:07:25;6.47;;;4.87;;
77324;SDS011;66387;53.440;10.390;2023-04-06T06:09:50;6.30;;;4.97;;
77324;SDS011;66387;53.440;10.390;2023-04-06T06:12:16;7.37;;;4.93;;
77324;SDS011;66387;53.440;10.390;2023-04-06T06:14:41;7.13;;;4.57;;
77324;SDS011;66387;53.440;10.390;2023-04-06T06:17:06;4.83;;;4.33;;
77324;SDS011;66387;53.440;10.390;2023-04-06T06:19:31;7.68;;;5.20;;
77324;SDS011;66387;53.440;10.390;2023-04-06T06:21:57;6.07;;;4.67;;
77324;SDS011;66387;53.440;10.390;2023-04-06T06:24:23;8.85;;;5.43;;
77324;SDS011;66387;53.440;10.390;2023-04-06T06:26:48;10.40;;;6.17;;
77324;SDS011;66387;53.440;10.390;2023-04-06T06:29:14;9.68;;;6.28;;
77324;SDS011;66387;53.440;10.390;2023-04-06T06:31:39;10.38;;;6.07;;
77324;SDS011;66387;53.440;10.390;2023-04-06T06:34:05;8.82;;;5.78;;
77324;SDS011;66387;53.440;10.390;2023-04-06T06:36:30;6.95;;;5.03;;
77324;SDS011;66387;53.440;10.390;2023-04-06T06:38:56;7.40;;;5.57;;
77324;SDS011;66387;53.440;10.390;2023-04-06T06:41:23;7.05;;;5.07;;
77324;SDS011;66387;53.440;10.390;2023-04-06T06:43:48;6.55;;;4.80;;
77324;SDS011;66387;53.440;10.390;2023-04-06T06:46:13;6.47;;;4.30;;
77324;SDS011;66387;53.440;10.390;2023-04-06T06:48:39;6.70;;;4.47;;
77324;SDS011;66387;53.440;10.390;2023-04-06T06:51:04;8.60;;;4.47;;
77324;SDS011;66387;53.440;10.390;2023-04-06T06:53:30;5.60;;;3.72;;
77324;SDS011;66387;53.440;10.390;2023-04-06T06:55:55;6.03;;;4.13;;
77324;SDS011;66387;53.440;10.390;2023-04-06T06:58:21;6.95;;;3.55;;
77324;SDS011;66387;53.440;10.390;2023-04-06T07:00:46;5.50;;;4.13;;
77324;SDS011;66387;53.440;10.390;2023-04-06T07:03:11;8.95;;;4.80;;
77324;SDS011;66387;53.440;10.390;2023-04-06T07:05:37;8.32;;;3.58;;
77324;SDS011;66387;53.440;10.390;2023-04-06T07:08:02;4.70;;;3.35;;
77324;SDS011;66387;53.440;10.390;2023-04-06T07:10:27;5.78;;;4.00;;
77324;SDS011;66387;53.440;10.390;2023-04-06T07:12:53;5.27;;;3.33;;
77324;SDS011;66387;53.440;10.390;2023-04-06T07:15:18;6.17;;;4.20;;
77324;SDS011;66387;53.440;10.390;2023-04-06T07:17:43;5.37;;;3.90;;
77324;SDS011;66387;53.440;10.390;2023-04-06T07:20:12;5.68;;;3.42;;
77324;SDS011;66387;53.440;10.390;2023-04-06T07:22:39;6.07;;;3.65;;
77324;SDS011;66387;53.440;10.390;2023-04-06T07:25:06;5.60;;;3.83;;
77324;SDS011;66387;53.440;10.390;2023-04-06T07:27:32;4.60;;;3.58;;
77324;SDS011;66387;53.440;10.390;2023-04-06T07:29:57;6.27;;;4.03;;
77324;SDS011;66387;53.440;10.390;2023-04-06T07:32:23;5.53;;;3.53;;
77324;SDS011;66387;53.440;10.390;2023-04-06T07:34:48;5.70;;;3.50;;
77324;SDS011;66387;53.440;10.390;2023-04-06T07:37:13;6.73;;;3.63;;
77324;SDS011;66387;53.440;10.390;2023-04-06T07:39:39;5.47;;;3.90;;
77324;SDS011;66387;53.440;10.390;2023-04-06T07:42:05;6.15;;;4.85;;
77324;SDS011;66387;53.440;10.390;2023-04-06T07:44:30;4.78;;;3.03;;
77324;SDS011;66387;53.440;10.390;2023-04-06T07:46:56;5.67;;;3.33;;
77324;SDS011;66387;53.440;10.390;2023-04-06T07:49:21;5.25;;;3.65;;
77324;SDS011;66387;53.440;10.390;2023-04-06T07:51:47;7.63;;;4.30;;
77324;SDS011;66387;53.440;10.390;2023-04-06T07:54:13;6.32;;;4.30;;
77324;SDS011;66387;53.440;10.390;2023-04-06T07:56:38;5.47;;;3.60;;
77324;SDS011;66387;53.440;10.390;2023-04-06T07:59:03;5.20;;;3.60;;
77324;SDS011;66387;53.440;10.390;2023-04-06T08:01:29;5.57;;;3.43;;
77324;SDS011;66387;53.440;10.390;2023-04-06T08:03:55;5.70;;;3.65;;
77324;SDS011;66387;53.440;10.390;2023-04-06T08:06:21;4.35;;;3.03;;
77324;SDS011;66387;53.440;10.390;2023-04-06T08:08:46;5.63;;;3.80;;
77324;SDS011;66387;53.440;10.390;2023-04-06T08:11:11;6.03;;;3.50;;
77324;SDS011;66387;53.440;10.390;2023-04-06T08:13:37;9.20;;;4.07;;
77324;SDS011;66387;53.440;10.390;2023-04-06T08:16:02;4.83;;;3.87;;
77324;SDS011;66387;53.440;10.390;2023-04-06T08:18:27;5.95;;;3.65;;
77324;SDS011;66387;53.440;10.390;2023-04-06T08:20:54;8.27;;;4.22;;
77324;SDS011;66387;53.440;10.390;2023-04-06T08:23:20;6.13;;;3.55;;
77324;SDS011;66387;53.440;10.390;2023-04-06T08:25:46;5.47;;;3.50;;
77324;SDS011;66387;53.440;10.390;2023-04-06T08:28:11;5.13;;;3.40;;
77324;SDS011;66387;53.440;10.390;2023-04-06T08:30:37;6.30;;;3.58;;
77324;SDS011;66387;53.440;10.390;2023-04-06T08:33:05;5.88;;;3.30;;
77324;SDS011;66387;53.440;10.390;2023-04-06T08:35:30;5.05;;;3.22;;
77324;SDS011;66387;53.440;10.390;2023-04-06T08:37:56;5.23;;;3.23;;
77324;SDS011;66387;53.440;10.390;2023-04-06T08:40:22;3.80;;;3.35;;
77324;SDS011;66387;53.440;10.390;2023-04-06T08:42:52;9.57;;;3.60;;
77324;SDS011;66387;53.440;10.390;2023-04-06T08:45:19;6.95;;;3.67;;
77324;SDS011;66387;53.440;10.390;2023-04-06T08:47:46;6.10;;;3.50;;
77324;SDS011;66387;53.440;10.390;2023-04-06T08:50:19;4.60;;;3.40;;
77324;SDS011;66387;53.440;10.390;2023-04-06T08:52:46;5.13;;;3.38;;
77324;SDS011;66387;53.440;10.390;2023-04-06T08:55:12;4.47;;;3.10;;
77324;SDS011;66387;53.440;10.390;2023-04-06T08:57:38;5.72;;;3.13;;
77324;SDS011;66387;53.440;10.390;2023-04-06T09:00:04;4.28;;;3.15;;
77324;SDS011;66387;53.440;10.390;2023-04-06T09:02:32;5.50;;;3.10;;
77324;SDS011;66387;53.440;10.390;2023-04-06T09:04:58;5.43;;;3.08;;
77324;SDS011;66387;53.440;10.390;2023-04-06T09:07:25;5.63;;;3.78;;
77324;SDS011;66387;53.440;10.390;2023-04-06T09:09:50;5.18;;;2.97;;
77324;SDS011;66387;53.440;10.390;2023-04-06T09:12:30;4.35;;;3.10;;
77324;SDS011;66387;53.440;10.390;2023-04-06T09:14:56;5.25;;;3.40;;
77324;SDS011;66387;53.440;10.390;2023-04-06T09:17:23;4.95;;;3.33;;
77324;SDS011;66387;53.440;10.390;2023-04-06T09:19:55;4.72;;;3.40;;
77324;SDS011;66387;53.440;10.390;2023-04-06T09:22:21;4.00;;;3.38;;
77324;SDS011;66387;53.440;10.390;2023-04-06T09:24:50;5.28;;;3.08;;
77324;SDS011;66387;53.440;10.390;2023-04-06T09:27:17;3.80;;;2.90;;
77324;SDS011;66387;53.440;10.390;2023-04-06T09:29:44;5.35;;;2.97;;
77324;SDS011;66387;53.440;10.390;2023-04-06T09:32:10;5.03;;;2.47;;
77324;SDS011;66387;53.440;10.390;2023-04-06T09:34:37;3.70;;;2.80;;
77324;SDS011;66387;53.440;10.390;2023-04-06T09:37:13;2.70;;;2.33;;
77324;SDS011;66387;53.440;10.390;2023-04-06T09:39:39;3.78;;;2.75;;
77324;SDS011;66387;53.440;10.390;2023-04-06T09:42:04;5.15;;;2.88;;
77324;SDS011;66387;53.440;10.390;2023-04-06T09:44:30;3.47;;;3.17;;
77324;SDS011;66387;53.440;10.390;2023-04-06T09:46:55;4.80;;;3.00;;
77324;SDS011;66387;53.440;10.390;2023-04-06T09:49:20;4.13;;;2.95;;
77324;SDS011;66387;53.440;10.390;2023-04-06T09:51:54;4.95;;;3.22;;
77324;SDS011;66387;53.440;10.390;2023-04-06T09:54:22;5.97;;;3.20;;
77324;SDS011;66387;53.440;10.390;2023-04-06T09:56:54;4.45;;;3.35;;
77324;SDS011;66387;53.440;10.390;2023-04-06T10:08:08;5.40;;;3.65;;
77324;SDS011;66387;53.440;10.390;2023-04-06T10:10:35;5.32;;;3.95;;
77324;SDS011;66387;53.440;10.390;2023-04-06T10:13:01;4.85;;;3.35;;
77324;SDS011;66387;53.440;10.390;2023-04-06T10:15:28;5.70;;;4.22;;
77324;SDS011;66387;53.440;10.390;2023-04-06T10:17:55;5.38;;;3.83;;
77324;SDS011;66387;53.440;10.390;2023-04-06T10:20:22;6.03;;;4.22;;
77324;SDS011;66387;53.440;10.390;2023-04-06T10:22:56;6.03;;;3.70;;
77324;SDS011;66387;53.440;10.390;2023-04-06T10:25:29;6.90;;;4.00;;
77324;SDS011;66387;53.440;10.390;2023-04-06T10:28:07;5.53;;;4.28;;
77324;SDS011;66387;53.440;10.390;2023-04-06T10:30:34;5.32;;;4.82;;
77324;SDS011;66387;53.440;10.390;2023-04-06T10:33:00;5.47;;;3.85;;
77324;SDS011;66387;53.440;10.390;2023-04-06T10:35:37;6.88;;;4.35;;
77324;SDS011;66387;53.440;10.390;2023-04-06T10:38:05;5.10;;;3.80;;
77324;SDS011;66387;53.440;10.390;2023-04-06T10:40:31;5.00;;;3.95;;
77324;SDS011;66387;53.440;10.390;2023-04-06T10:43:06;5.90;;;4.25;;
77324;SDS011;66387;53.440;10.390;2023-04-06T10:45:39;7.63;;;4.35;;
77324;SDS011;66387;53.440;10.390;2023-04-06T10:48:14;5.38;;;4.05;;
77324;SDS011;66387;53.440;10.390;2023-04-06T10:50:43;5.30;;;4.05;;
77324;SDS011;66387;53.440;10.390;2023-04-06T10:53:20;5.22;;;3.95;;
77324;SDS011;66387;53.440;10.390;2023-04-06T10:58:12;6.28;;;4.25;;
77324;SDS011;66387;53.440;10.390;2023-04-06T11:00:43;5.83;;;4.10;;
77324;SDS011;66387;53.440;10.390;2023-04-06T11:03:12;5.40;;;4.70;;
77324;SDS011;66387;53.440;10.390;2023-04-06T11:05:38;5.38;;;3.50;;
77324;SDS011;66387;53.440;10.390;2023-04-06T11:08:03;5.32;;;4.10;;
77324;SDS011;66387;53.440;10.390;2023-04-06T11:10:29;6.53;;;4.50;;
77324;SDS011;66387;53.440;10.390;2023-04-06T11:12:55;6.47;;;4.32;;
77324;SDS011;66387;53.440;10.390;2023-04-06T11:15:21;5.70;;;4.28;;
77324;SDS011;66387;53.440;10.390;2023-04-06T11:17:46;5.97;;;4.70;;
77324;SDS011;66387;53.440;10.390;2023-04-06T11:20:14;8.50;;;4.40;;
77324;SDS011;66387;53.440;10.390;2023-04-06T11:22:51;6.85;;;5.47;;
77324;SDS011;66387;53.440;10.390;2023-04-06T11:25:17;9.07;;;6.35;;
77324;SDS011;66387;53.440;10.390;2023-04-06T11:27:43;7.68;;;5.45;;
77324;SDS011;66387;53.440;10.390;2023-04-06T11:30:10;5.80;;;5.00;;
77324;SDS011;66387;53.440;10.390;2023-04-06T11:32:39;8.73;;;5.07;;
77324;SDS011;66387;53.440;10.390;2023-04-06T11:35:19;7.75;;;5.65;;
77324;SDS011;66387;53.440;10.390;2023-04-06T11:37:48;6.50;;;5.07;;
77324;SDS011;66387;53.440;10.390;2023-04-06T11:40:22;7.03;;;5.32;;
77324;SDS011;66387;53.440;10.390;2023-04-06T11:42:52;6.88;;;4.85;;
77324;SDS011;66387;53.440;10.390;2023-04-06T11:45:19;9.95;;;5.90;;
77324;SDS011;66387;53.440;10.390;2023-04-06T11:47:44;8.20;;;5.68;;
77324;SDS011;66387;53.440;10.390;2023-04-06T11:50:10;8.48;;;6.40;;
77324;SDS011;66387;53.440;10.390;2023-04-06T11:52:38;6.78;;;5.90;;
77324;SDS011;66387;53.440;10.390;2023-04-06T11:55:14;8.32;;;5.38;;
77324;SDS011;66387;53.440;10.390;2023-04-06T11:57:41;8.45;;;5.45;;
77324;SDS011;66387;53.440;10.390;2023-04-06T12:00:07;7.45;;;5.90;;
77324;SDS011;66387;53.440;10.390;2023-04-06T12:02:34;7.13;;;5.25;;
77324;SDS011;66387;53.440;10.390;2023-04-06T12:05:03;9.55;;;6.07;;
77324;SDS011;66387;53.440;10.390;2023-04-06T12:07:30;7.82;;;5.78;;
77324;SDS011;66387;53.440;10.390;2023-04-06T12:09:56;6.82;;;5.72;;
77324;SDS011;66387;53.440;10.390;2023-04-06T12:12:21;8.00;;;6.20;;
77324;SDS011;66387;53.440;10.390;2023-04-06T12:14:47;9.43;;;5.50;;
77324;SDS011;66387;53.440;10.390;2023-04-06T12:17:12;7.03;;;5.87;;
77324;SDS011;66387;53.440;10.390;2023-04-06T12:19:37;8.60;;;5.30;;
77324;SDS011;66387;53.440;10.390;2023-04-06T12:22:03;6.77;;;5.17;;
77324;SDS011;66387;53.440;10.390;2023-04-06T12:24:28;6.97;;;5.82;;
77324;SDS011;66387;53.440;10.390;2023-04-06T12:26:54;6.60;;;5.80;;
77324;SDS011;66387;53.440;10.390;2023-04-06T12:29:19;9.02;;;5.90;;
77324;SDS011;66387;53.440;10.390;2023-04-06T12:31:45;8.07;;;6.15;;
77324;SDS011;66387;53.440;10.390;2023-04-06T12:34:10;6.53;;;5.72;;
77324;SDS011;66387;53.440;10.390;2023-04-06T12:36:36;7.07;;;5.77;;
77324;SDS011;66387;53.440;10.390;2023-04-06T12:39:02;8.10;;;6.45;;
77324;SDS011;66387;53.440;10.390;2023-04-06T12:41:28;10.30;;;5.97;;
77324;SDS011;66387;53.440;10.390;2023-04-06T12:43:53;7.03;;;5.35;;
77324;SDS011;66387;53.440;10.390;2023-04-06T12:46:19;6.72;;;6.00;;
77324;SDS011;66387;53.440;10.390;2023-04-06T12:48:44;7.78;;;6.05;;
77324;SDS011;66387;53.440;10.390;2023-04-06T12:51:10;7.33;;;5.80;;
77324;SDS011;66387;53.440;10.390;2023-04-06T12:53:35;9.33;;;6.30;;
77324;SDS011;66387;53.440;10.390;2023-04-06T12:56:01;8.80;;;6.72;;
77324;SDS011;66387;53.440;10.390;2023-04-06T12:58:27;9.98;;;6.20;;
77324;SDS011;66387;53.440;10.390;2023-04-06T13:00:53;7.22;;;6.20;;
77324;SDS011;66387;53.440;10.390;2023-04-06T13:03:20;8.07;;;5.78;;
77324;SDS011;66387;53.440;10.390;2023-04-06T13:05:47;6.63;;;5.85;;
77324;SDS011;66387;53.440;10.390;2023-04-06T13:08:13;25.73;;;7.50;;
77324;SDS011;66387;53.440;10.390;2023-04-06T13:10:48;9.07;;;6.05;;
77324;SDS011;66387;53.440;10.390;2023-04-06T13:13:15;7.47;;;6.32;;
77324;SDS011;66387;53.440;10.390;2023-04-06T13:15:41;7.05;;;6.20;;
77324;SDS011;66387;53.440;10.390;2023-04-06T13:18:08;7.97;;;5.72;;
77324;SDS011;66387;53.440;10.390;2023-04-06T13:20:34;7.30;;;5.53;;
77324;SDS011;66387;53.440;10.390;2023-04-06T13:22:59;8.65;;;6.15;;
77324;SDS011;66387;53.440;10.390;2023-04-06T13:25:25;6.55;;;5.32;;
77324;SDS011;66387;53.440;10.390;2023-04-06T13:27:50;9.47;;;6.17;;
77324;SDS011;66387;53.440;10.390;2023-04-06T13:30:15;6.90;;;6.13;;
77324;SDS011;66387;53.440;10.390;2023-04-06T13:32:41;7.05;;;5.35;;
77324;SDS011;66387;53.440;10.390;2023-04-06T13:35:07;6.78;;;5.78;;
77324;SDS011;66387;53.440;10.390;2023-04-06T13:37:33;7.93;;;6.82;;
77324;SDS011;66387;53.440;10.390;2023-04-06T13:39:59;7.78;;;5.72;;
77324;SDS011;66387;53.440;10.390;2023-04-06T13:42:25;8.30;;;6.43;;
77324;SDS011;66387;53.440;10.390;2023-04-06T13:44:51;9.48;;;6.22;;
77324;SDS011;66387;53.440;10.390;2023-04-06T13:47:17;7.82;;;6.43;;
77324;SDS011;66387;53.440;10.390;2023-04-06T13:49:43;7.90;;;5.83;;
77324;SDS011;66387;53.440;10.390;2023-04-06T13:52:08;7.93;;;6.35;;
77324;SDS011;66387;53.440;10.390;2023-04-06T13:54:35;7.28;;;6.57;;
77324;SDS011;66387;53.440;10.390;2023-04-06T13:57:00;7.70;;;5.97;;
77324;SDS011;66387;53.440;10.390;2023-04-06T13:59:31;6.27;;;5.43;;
77324;SDS011;66387;53.440;10.390;2023-04-06T14:01:57;7.95;;;5.60;;
77324;SDS011;66387;53.440;10.390;2023-04-06T14:04:22;9.90;;;5.70;;
77324;SDS011;66387;53.440;10.390;2023-04-06T14:06:48;6.30;;;5.20;;
77324;SDS011;66387;53.440;10.390;2023-04-06T14:09:13;7.60;;;6.00;;
77324;SDS011;66387;53.440;10.390;2023-04-06T14:11:38;7.40;;;5.60;;
77324;SDS011;66387;53.440;10.390;2023-04-06T14:14:03;7.20;;;6.47;;
77324;SDS011;66387;53.440;10.390;2023-04-06T14:16:29;6.17;;;5.57;;
77324;SDS011;66387;53.440;10.390;2023-04-06T14:18:54;8.30;;;6.40;;
77324;SDS011;66387;53.440;10.390;2023-04-06T14:21:22;7.22;;;6.18;;
77324;SDS011;66387;53.440;10.390;2023-04-06T14:23:47;8.45;;;5.95;;
77324;SDS011;66387;53.440;10.390;2023-04-06T14:26:13;8.83;;;6.07;;
77324;SDS011;66387;53.440;10.390;2023-04-06T14:28:38;7.28;;;5.70;;
77324;SDS011;66387;53.440;10.390;2023-04-06T14:31:09;8.82;;;5.93;;
77324;SDS011;66387;53.440;10.390;2023-04-06T14:33:36;8.82;;;6.85;;
77324;SDS011;66387;53.440;10.390;2023-04-06T14:36:02;7.60;;;6.47;;
77324;SDS011;66387;53.440;10.390;2023-04-06T14:38:28;7.10;;;5.63;;